createdAt,value
2024-03-02T00:02:00.591Z,90.61
2024-03-02T00:05:03.897Z,90.76
2024-03-02T00:08:08.968Z,90.88
2024-03-02T00:11:15.305Z,90.71
2024-03-02T00:14:18.165Z,91.23
2024-03-02T00:17:27.138Z,90.44
2024-03-02T00:20:30.272Z,90.40
2024-03-02T00:23:36.301Z,90.62
2024-03-02T00:26:39.042Z,90.45
2024-03-02T00:29:43.920Z,90.49
2024-03-02T00:32:46.560Z,90.59
2024-03-02T00:35:50.471Z,90.46
2024-03-02T00:38:55.324Z,90.70
2024-03-02T00:41:58.233Z,90.74
2024-03-02T00:45:00.815Z,90.71
2024-03-02T00:48:05.969Z,91.13
2024-03-02T00:51:09.377Z,91.70
2024-03-02T00:54:12.439Z,91.40
2024-03-02T00:57:16.318Z,91.60
2024-03-02T01:00:19.552Z,91.32
2024-03-02T01:03:22.356Z,91.27
2024-03-02T01:06:25.548Z,91.47
2024-03-02T01:09:28.162Z,91.39
2024-03-02T01:12:31.057Z,91.22
2024-03-02T01:15:34.847Z,91.26
2024-03-02T01:18:38.002Z,91.46
2024-03-02T01:21:40.736Z,91.48
2024-03-02T01:24:43.806Z,92.04
2024-03-02T01:27:50.239Z,92.16
2024-03-02T01:30:53.595Z,92.78
2024-03-02T01:33:56.407Z,94.09
2024-03-02T01:36:59.361Z,94.78
2024-03-02T01:40:02.286Z,95.29
2024-03-02T01:43:06.164Z,96.37
2024-03-02T01:46:08.850Z,96.97
2024-03-02T01:49:11.747Z,97.88
2024-03-02T01:52:14.317Z,98.05
2024-03-02T01:55:17.260Z,98.67
2024-03-02T01:58:20.092Z,98.87
2024-03-02T02:01:22.890Z,100.00
2024-03-02T02:04:29.036Z,100.00
2024-03-02T02:07:32.441Z,100.00
2024-03-02T02:10:35.331Z,100.00
2024-03-02T02:13:38.138Z,100.00
2024-03-02T02:16:41.036Z,100.00
2024-03-02T02:19:44.052Z,100.00
2024-03-02T02:23:04.276Z,100.00
2024-03-02T02:26:06.877Z,100.00
2024-03-02T02:29:09.791Z,100.00
2024-03-02T02:32:12.540Z,100.00
2024-03-02T02:35:15.517Z,100.00
2024-03-02T02:38:18.307Z,100.00
2024-03-02T02:41:21.159Z,100.00
2024-03-02T02:44:23.825Z,100.00
2024-03-02T02:47:27.487Z,100.00
2024-03-02T02:50:30.246Z,100.00
2024-03-02T02:53:33.155Z,100.00
2024-03-02T02:56:36.190Z,100.00
2024-03-02T02:59:39.052Z,100.00
2024-03-02T03:02:43.228Z,100.00
2024-03-02T03:05:46.156Z,100.00
2024-03-02T03:08:48.813Z,100.00
2024-03-02T03:11:51.688Z,100.00
2024-03-02T03:14:54.341Z,100.00
2024-03-02T03:17:57.305Z,100.00
2024-03-02T03:20:59.984Z,100.00
2024-03-02T03:24:02.920Z,100.00
2024-03-02T03:27:05.799Z,100.00
2024-03-02T03:30:08.939Z,100.00
2024-03-02T03:33:11.662Z,100.00
2024-03-02T03:36:14.585Z,100.00
2024-03-02T03:39:17.298Z,100.00
2024-03-02T03:42:20.265Z,100.00
2024-03-02T03:45:22.885Z,100.00
2024-03-02T03:48:31.740Z,100.00
2024-03-02T03:51:35.095Z,100.00
2024-03-02T03:54:39.634Z,100.00
2024-03-02T03:57:42.334Z,100.00
2024-03-02T04:00:45.256Z,100.00
2024-03-02T04:03:48.429Z,100.00
2024-03-02T04:06:51.105Z,100.00
2024-03-02T04:09:54.077Z,100.00
2024-03-02T04:12:56.787Z,100.00
2024-03-02T04:15:59.685Z,100.00
2024-03-02T04:19:02.356Z,100.00
2024-03-02T04:22:12.488Z,100.00
2024-03-02T04:25:21.260Z,100.00
2024-03-02T04:28:24.238Z,100.00
2024-03-02T04:31:26.875Z,100.00
2024-03-02T04:34:29.940Z,100.00
2024-03-02T04:37:35.671Z,100.00
2024-03-02T04:40:38.550Z,100.00
2024-03-02T04:43:41.570Z,100.00
2024-03-02T04:46:44.510Z,100.00
2024-03-02T04:49:47.448Z,100.00
2024-03-02T04:52:50.398Z,100.00
2024-03-02T04:56:29.079Z,100.00
2024-03-02T04:59:32.143Z,100.00
2024-03-02T05:02:34.710Z,100.00
2024-03-02T05:05:38.377Z,100.00
2024-03-02T05:08:41.042Z,100.00
2024-03-02T05:11:43.912Z,100.00
2024-03-02T05:14:47.365Z,100.00
2024-03-02T05:17:50.490Z,100.00
2024-03-02T05:20:53.086Z,100.00
2024-03-02T05:23:55.998Z,100.00
2024-03-02T05:26:58.620Z,100.00
2024-03-02T05:30:02.078Z,100.00
2024-03-02T05:33:05.248Z,100.00
2024-03-02T05:36:08.451Z,100.00
2024-03-02T05:39:11.582Z,100.00
2024-03-02T05:42:15.501Z,100.00
2024-03-02T05:45:18.299Z,100.00
2024-03-02T05:48:21.298Z,100.00
2024-03-02T05:51:23.946Z,100.00
2024-03-02T05:54:26.804Z,100.00
2024-03-02T05:57:50.615Z,100.00
2024-03-02T06:00:55.780Z,100.00
2024-03-02T06:04:00.114Z,100.00
2024-03-02T06:07:02.817Z,100.00
2024-03-02T06:10:10.944Z,100.00
2024-03-02T06:13:15.280Z,100.00
2024-03-02T06:16:18.385Z,100.00
2024-03-02T06:19:21.601Z,100.00
2024-03-02T06:22:26.192Z,100.00
2024-03-02T06:25:29.300Z,100.00
2024-03-02T06:28:32.154Z,100.00
2024-03-02T06:31:34.808Z,100.00
2024-03-02T06:34:37.812Z,100.00
2024-03-02T06:37:42.928Z,100.00
2024-03-02T06:40:45.875Z,100.00
2024-03-02T06:43:48.541Z,100.00
2024-03-02T06:46:51.379Z,100.00
2024-03-02T06:49:54.969Z,100.00
2024-03-02T06:52:58.429Z,100.00
2024-03-02T06:56:01.001Z,100.00
2024-03-02T06:59:03.970Z,100.00
2024-03-02T07:02:06.782Z,100.00
2024-03-02T07:05:09.886Z,100.00
2024-03-02T07:08:12.652Z,100.00
2024-03-02T07:11:15.754Z,100.00
2024-03-02T07:14:18.623Z,100.00
2024-03-02T07:17:21.551Z,100.00
2024-03-02T07:20:24.222Z,100.00
2024-03-02T07:23:28.441Z,100.00
2024-03-02T07:29:38.419Z,100.00
2024-03-02T07:32:42.700Z,100.00
2024-03-02T07:35:45.624Z,100.00
2024-03-02T07:38:51.403Z,100.00
2024-03-02T07:41:54.597Z,100.00
2024-03-02T07:44:57.216Z,100.00
2024-03-02T07:48:00.451Z,100.00
2024-03-02T07:51:03.782Z,100.00
2024-03-02T07:54:06.892Z,100.00
2024-03-02T07:57:09.799Z,100.00
2024-03-02T08:00:13.018Z,100.00
2024-03-02T08:03:16.287Z,100.00
2024-03-02T08:06:19.031Z,100.00
2024-03-02T08:09:21.993Z,100.00
2024-03-02T08:12:24.879Z,100.00
2024-03-02T08:15:27.913Z,100.00
2024-03-02T08:18:30.573Z,100.00
2024-03-02T08:21:36.336Z,100.00
2024-03-02T08:24:39.211Z,100.00
2024-03-02T08:27:42.173Z,100.00
2024-03-02T08:30:44.919Z,100.00
2024-03-02T08:33:48.054Z,100.00
2024-03-02T08:36:50.866Z,100.00
2024-03-02T08:39:53.936Z,100.00
2024-03-02T08:42:56.607Z,100.00
2024-03-02T08:45:59.649Z,100.00
2024-03-02T08:49:02.444Z,100.00
2024-03-02T08:52:05.904Z,100.00
2024-03-02T08:55:08.981Z,100.00
2024-03-02T08:58:12.066Z,100.00
2024-03-02T09:01:14.901Z,100.00
2024-03-02T09:04:18.060Z,100.00
2024-03-02T09:07:20.705Z,100.00
2024-03-02T09:10:26.299Z,100.00
2024-03-02T09:13:30.656Z,100.00
2024-03-02T09:16:33.706Z,100.00
2024-03-02T09:19:41.122Z,100.00
2024-03-02T09:22:43.976Z,100.00
2024-03-02T09:25:46.700Z,100.00
2024-03-02T09:28:49.568Z,100.00
2024-03-02T09:31:52.146Z,100.00
2024-03-02T09:34:57.032Z,100.00
2024-03-02T09:37:59.765Z,100.00
2024-03-02T09:41:03.201Z,100.00
2024-03-02T09:44:07.262Z,100.00
2024-03-02T09:47:10.179Z,100.00
2024-03-02T09:50:12.808Z,100.00
2024-03-02T09:53:16.633Z,100.00
2024-03-02T09:56:21.812Z,100.00
2024-03-02T09:59:24.706Z,100.00
2024-03-02T10:02:27.355Z,100.00
2024-03-02T10:05:30.334Z,100.00
2024-03-02T10:08:49.710Z,100.00
2024-03-02T10:11:52.593Z,100.00
2024-03-02T10:15:05.902Z,100.00
2024-03-02T10:18:13.376Z,100.00
2024-03-02T10:21:16.386Z,100.00
2024-03-02T10:24:20.704Z,100.00
2024-03-02T10:27:28.815Z,100.00
2024-03-02T10:30:31.843Z,100.00
2024-03-02T10:33:34.489Z,100.00
2024-03-02T10:36:41.464Z,100.00
2024-03-02T10:39:44.335Z,100.00
2024-03-02T10:42:48.205Z,100.00
2024-03-02T10:45:52.049Z,100.00
2024-03-02T10:48:55.037Z,100.00
2024-03-02T10:51:58.859Z,100.00
2024-03-02T10:55:01.953Z,98.69
2024-03-02T10:58:08.433Z,99.12
2024-03-02T11:01:13.812Z,99.03
2024-03-02T11:04:20.139Z,96.62
2024-03-02T11:07:24.595Z,95.91
2024-03-02T11:10:31.309Z,94.34
2024-03-02T11:13:37.603Z,95.32
2024-03-02T11:16:42.720Z,95.71
2024-03-02T11:19:46.657Z,95.90
2024-03-02T11:22:49.326Z,97.21
2024-03-02T11:25:52.250Z,95.77
2024-03-02T11:28:55.077Z,98.11
2024-03-02T11:32:04.158Z,94.94
2024-03-02T11:35:08.482Z,95.03
2024-03-02T11:38:12.153Z,96.67
2024-03-02T11:41:15.727Z,97.25
2024-03-02T11:44:19.104Z,96.17
2024-03-02T11:47:21.885Z,96.19
2024-03-02T11:50:50.148Z,96.14
2024-03-02T11:53:55.646Z,97.03
2024-03-02T11:57:01.090Z,97.52
2024-03-02T12:00:04.854Z,97.57
2024-03-02T12:03:09.360Z,96.62
2024-03-02T12:06:14.276Z,97.22
2024-03-02T12:09:16.955Z,98.76
2024-03-02T12:12:23.702Z,97.51
2024-03-02T12:15:31.979Z,98.08
2024-03-02T12:18:35.063Z,98.18
2024-03-02T12:21:38.521Z,97.95
2024-03-02T12:24:42.570Z,97.76
2024-03-02T12:27:46.728Z,95.37
2024-03-02T12:30:50.279Z,95.85
2024-03-02T12:33:53.212Z,94.60
2024-03-02T12:36:56.271Z,93.27
2024-03-02T12:39:59.017Z,94.08
2024-03-02T12:43:02.317Z,95.09
2024-03-02T12:46:05.354Z,93.87
2024-03-02T12:49:13.447Z,94.19
2024-03-02T12:52:16.170Z,94.00
2024-03-02T12:55:20.074Z,92.93
2024-03-02T12:58:23.893Z,93.62
2024-03-02T13:01:27.262Z,92.59
2024-03-02T13:04:30.531Z,91.71
2024-03-02T13:07:34.860Z,90.92
2024-03-02T13:10:38.988Z,92.78
2024-03-02T13:13:42.010Z,91.12
2024-03-02T13:16:47.924Z,92.16
2024-03-02T13:19:58.987Z,91.20
2024-03-02T13:23:02.593Z,91.39
2024-03-02T13:26:05.801Z,89.04
2024-03-02T13:29:09.244Z,90.85
2024-03-02T13:32:12.184Z,89.60
2024-03-02T13:35:14.794Z,88.79
2024-03-02T13:38:19.272Z,88.81
2024-03-02T13:41:22.354Z,87.29
2024-03-02T13:44:26.057Z,87.54
2024-03-02T13:47:28.754Z,88.62
2024-03-02T13:50:32.047Z,88.64
2024-03-02T13:53:35.921Z,88.26
2024-03-02T13:56:40.270Z,87.78
2024-03-02T13:59:44.338Z,88.09
2024-03-02T14:02:48.086Z,87.27
2024-03-02T14:05:51.397Z,87.20
2024-03-02T14:08:54.876Z,87.32
2024-03-02T14:11:58.268Z,87.47
2024-03-02T14:15:03.484Z,87.30
2024-03-02T14:18:07.279Z,88.02
2024-03-02T14:21:09.951Z,86.97
2024-03-02T14:24:12.779Z,87.48
2024-03-02T14:27:25.271Z,88.01
2024-03-02T14:30:35.802Z,87.46
2024-03-02T14:33:38.544Z,88.33
2024-03-02T14:36:44.719Z,88.36
2024-03-02T14:39:47.409Z,88.43
2024-03-02T14:42:50.383Z,89.84
2024-03-02T14:45:53.028Z,88.75
2024-03-02T14:48:56.083Z,89.41
2024-03-02T14:51:58.775Z,88.69
2024-03-02T14:55:02.095Z,88.37
2024-03-02T14:58:05.034Z,89.90
2024-03-02T15:01:08.491Z,89.94
2024-03-02T15:04:11.246Z,90.57
2024-03-02T15:07:14.279Z,90.28
2024-03-02T15:10:17.198Z,90.21
2024-03-02T15:13:20.405Z,90.49
2024-03-02T15:16:23.081Z,91.28
2024-03-02T15:19:26.076Z,90.92
2024-03-02T15:22:28.630Z,90.65
2024-03-02T15:25:31.572Z,90.26
2024-03-02T15:28:34.332Z,90.54
2024-03-02T15:31:37.322Z,91.06
2024-03-02T15:34:40.189Z,91.18
2024-03-02T15:37:43.145Z,91.36
2024-03-02T15:40:45.946Z,90.89
2024-03-02T15:43:49.961Z,91.01
2024-03-02T15:46:52.815Z,91.06
2024-03-02T15:49:55.874Z,91.55
2024-03-02T15:53:03.647Z,92.53
2024-03-02T15:56:09.509Z,92.50
2024-03-02T15:59:12.749Z,92.62
2024-03-02T16:02:15.666Z,93.65
2024-03-02T16:05:19.619Z,93.99
2024-03-02T16:08:22.369Z,94.73
2024-03-02T16:11:25.332Z,95.83
2024-03-02T16:14:27.988Z,96.24
2024-03-02T16:17:30.943Z,96.89
2024-03-02T16:20:33.871Z,97.51
2024-03-02T16:23:36.857Z,97.87
2024-03-02T16:26:40.033Z,98.52
2024-03-02T16:29:42.938Z,98.88
2024-03-02T16:32:45.553Z,100.00
2024-03-02T16:35:49.839Z,100.00
2024-03-02T16:38:52.532Z,100.00
2024-03-02T16:41:55.492Z,100.00
2024-03-02T16:44:58.333Z,100.00
2024-03-02T16:48:01.770Z,100.00
2024-03-02T16:51:05.253Z,100.00
2024-03-02T16:54:08.916Z,100.00
2024-03-02T16:57:12.557Z,100.00
2024-03-02T17:00:16.006Z,100.00
2024-03-02T17:03:19.339Z,100.00
2024-03-02T17:06:22.148Z,100.00
2024-03-02T17:09:24.809Z,100.00
2024-03-02T17:12:27.854Z,100.00
2024-03-02T17:15:30.573Z,100.00
2024-03-02T17:18:33.806Z,100.00
2024-03-02T17:21:36.465Z,100.00
2024-03-02T17:24:39.404Z,100.00
2024-03-02T17:27:42.059Z,100.00
2024-03-02T17:30:45.498Z,100.00
2024-03-02T17:33:48.569Z,100.00
2024-03-02T17:36:51.680Z,100.00
2024-03-02T17:39:55.893Z,100.00
2024-03-02T17:42:58.923Z,100.00
2024-03-02T17:46:01.777Z,100.00
2024-03-02T17:49:05.704Z,100.00
2024-03-02T17:52:08.685Z,100.00
2024-03-02T17:55:11.951Z,100.00
2024-03-02T17:58:14.730Z,100.00
2024-03-02T18:01:18.270Z,100.00
2024-03-02T18:04:23.442Z,100.00
2024-03-02T18:07:26.499Z,100.00
2024-03-02T18:10:30.231Z,100.00
2024-03-02T18:13:35.148Z,100.00
2024-03-02T18:16:38.463Z,100.00
2024-03-02T18:19:41.130Z,100.00
2024-03-02T18:22:44.303Z,100.00
2024-03-02T18:25:49.750Z,100.00
2024-03-02T18:28:52.680Z,100.00
2024-03-02T18:31:55.409Z,100.00
2024-03-02T18:34:58.278Z,100.00
2024-03-02T18:38:00.912Z,100.00
2024-03-02T18:41:03.975Z,100.00
2024-03-02T18:44:06.941Z,100.00
2024-03-02T18:47:12.243Z,100.00
2024-03-02T18:50:15.368Z,100.00
2024-03-02T18:53:18.274Z,100.00
2024-03-02T18:56:21.065Z,100.00
2024-03-02T18:59:25.280Z,100.00
2024-03-02T19:02:29.541Z,100.00
2024-03-02T19:05:33.391Z,100.00
2024-03-02T19:08:36.398Z,100.00
2024-03-02T19:11:39.946Z,100.00
2024-03-02T19:14:43.064Z,100.00
2024-03-02T19:17:46.104Z,100.00
2024-03-02T19:20:49.110Z,100.00
2024-03-02T19:23:52.064Z,100.00
2024-03-02T19:26:54.661Z,100.00
2024-03-02T19:29:57.577Z,100.00
2024-03-02T19:33:00.319Z,100.00
2024-03-02T19:36:04.633Z,100.00
2024-03-02T19:39:07.490Z,100.00
2024-03-02T19:42:10.749Z,100.00
2024-03-02T19:45:13.798Z,100.00
2024-03-02T19:48:18.450Z,100.00
2024-03-02T19:51:21.417Z,100.00
2024-03-02T19:54:24.346Z,100.00
2024-03-02T19:57:28.350Z,100.00
2024-03-02T20:00:31.610Z,100.00
2024-03-02T20:03:34.517Z,100.00
2024-03-02T20:06:39.519Z,100.00
2024-03-02T20:09:42.826Z,100.00
2024-03-02T20:12:45.488Z,100.00
2024-03-02T20:15:48.631Z,100.00
2024-03-02T20:18:51.416Z,100.00
2024-03-02T20:21:54.381Z,100.00
2024-03-02T20:24:56.984Z,100.00
2024-03-02T20:28:00.575Z,100.00
2024-03-02T20:31:03.390Z,100.00
2024-03-02T20:34:06.328Z,100.00
2024-03-02T20:37:09.212Z,100.00
2024-03-02T20:40:14.453Z,100.00
2024-03-02T20:43:17.106Z,100.00
2024-03-02T20:46:20.314Z,100.00
2024-03-02T20:49:24.848Z,100.00
2024-03-02T20:52:27.853Z,100.00
2024-03-02T20:55:31.190Z,100.00
2024-03-02T20:58:34.450Z,100.00
2024-03-02T21:01:38.291Z,100.00
2024-03-02T21:04:43.265Z,100.00
2024-03-02T21:07:45.962Z,100.00
2024-03-02T21:10:50.059Z,100.00
2024-03-02T21:13:53.155Z,100.00
2024-03-02T21:16:56.247Z,100.00
2024-03-02T21:19:58.963Z,100.00
2024-03-02T21:23:02.152Z,100.00
2024-03-02T21:26:05.031Z,100.00
2024-03-02T21:29:09.121Z,100.00
2024-03-02T21:32:11.718Z,100.00
2024-03-02T21:35:16.102Z,100.00
2024-03-02T21:38:18.759Z,100.00
2024-03-02T21:41:21.854Z,100.00
2024-03-02T21:44:24.790Z,100.00
2024-03-02T21:47:27.831Z,100.00
2024-03-02T21:50:31.750Z,100.00
2024-03-02T21:53:34.703Z,100.00
2024-03-02T21:56:37.829Z,100.00
2024-03-02T21:59:40.671Z,100.00
2024-03-02T22:02:43.285Z,100.00
2024-03-02T22:05:46.216Z,100.00
2024-03-02T22:08:48.861Z,100.00
2024-03-02T22:11:51.758Z,100.00
2024-03-02T22:14:54.661Z,100.00
2024-03-02T22:17:58.239Z,100.00
2024-03-02T22:21:00.905Z,100.00
2024-03-02T22:24:03.986Z,100.00
2024-03-02T22:27:06.620Z,100.00
2024-03-02T22:30:09.888Z,100.00
2024-03-02T22:33:12.961Z,100.00
2024-03-02T22:36:15.893Z,100.00
2024-03-02T22:39:18.546Z,100.00
2024-03-02T22:42:21.405Z,100.00
2024-03-02T22:45:23.976Z,100.00
2024-03-02T22:48:26.904Z,100.00
2024-03-02T22:51:29.447Z,100.00
2024-03-02T22:54:32.313Z,100.00
2024-03-02T22:57:36.472Z,100.00
2024-03-02T23:00:49.242Z,100.00
2024-03-02T23:03:52.357Z,100.00
2024-03-02T23:06:55.290Z,100.00
2024-03-02T23:09:57.966Z,100.00
2024-03-02T23:13:00.907Z,100.00
2024-03-02T23:16:04.272Z,100.00
2024-03-02T23:19:07.368Z,100.00
2024-03-02T23:22:11.490Z,100.00
2024-03-02T23:25:15.697Z,100.00
2024-03-02T23:28:18.370Z,100.00
2024-03-02T23:31:21.377Z,100.00
2024-03-02T23:34:23.988Z,100.00
2024-03-02T23:37:28.992Z,100.00
2024-03-02T23:40:51.563Z,100.00
2024-03-02T23:43:58.676Z,100.00
2024-03-02T23:47:01.569Z,100.00
2024-03-02T23:50:04.819Z,100.00
2024-03-02T23:53:07.402Z,100.00
2024-03-02T23:56:12.899Z,100.00
2024-03-02T23:59:15.432Z,100.00
